Avondale, Missouri
Current Conditions -  °F | °C
As of 9:54 PM on Wednesday 28 Jan 2015 (Local Time) from KMKC Reporting Station
Clear Clear  
Wind Chill: 60°   Ceiling: Unl
Heat Index: 60°   Visibility: 10mi
Dew Point: 36°   Wind: 12mph
Humidity: 41%   Direction: 250°WSW
Pressure: 29.77"   Gusts: NA
Location:  39.1657°N, 94.5231°W
Report Text: KMKC 290354Z 25010KT 10SM CLR 16/02 A2977 RMK AO2 SLP078 T01560022
Loading
Personal Weather Stations






























Interactive Weather Map New forecast layout! Learn more

10-Day Weather Forecast

Advertisements
Track Severe Weather on mobile